M I D A S
Marine Information and Data Acquisition System
Tripno 765 of the Zeeleeuw from 2004-08-23 06:31:38 to 2004-08-23 10:44:42
Back to CruiseResearch ActivitiesStationsMapUnderway DataData graphs

EquipmentUnitsComment
TimeDGPSUTC
LatitudeDGPSDM.mWGS84
LongitudeDGPSDM.mWGS84
TemperatureSBE03/SBE38deg celciusITS90
ConductivitySBE21S/mITS90
SalinitySBE21 Practical Salinity Units
ChlorophylAChelsea fluorimeterg/lCalibrated in Aceton
Missing or incorrect values are displayed as -999
Sea surface data collected by the RV Zeeleeuw from 2004-08-23 06:31:38 to 2004-08-23 10:44:42
Time Latitude Longitude Temperature Conductivity Salinity ChlorophylA
2004-08-23 06:32:45 51°13.595 2°56.104 20.8896 4.695429 32.697697 -0.781249
2004-08-23 06:33:52 51°13.617 2°56.016 20.910654 4.695112 32.698343 -0.781249
2004-08-23 06:34:52 51°13.649 2°55.908 20.921559 4.69469 32.697647 -0.814958
2004-08-23 06:35:52 51°13.668 2°55.805 20.921719 4.694374 32.697774 -0.781249
2004-08-23 06:36:49 51°13.674 2°55.769 20.990662 4.694057 32.697902 -0.781249
2004-08-23 06:37:59 51°13.739 2°55.727 20.992417 4.693741 32.698029 -0.74754
2004-08-23 06:39:01 51°13.846 2°55.607 20.926511 4.693424 32.697637 -0.781249
2004-08-23 06:40:07 51°13.999 2°55.503 20.949152 4.693003 32.699019 -0.781249
2004-08-23 06:41:13 51°14.153 2°55.389 20.967076 4.692581 32.698323 -0.781249
2004-08-23 06:42:29 51°14.32 2°55.147 20.953145 4.692159 32.696588 -0.814958
2004-08-23 06:43:29 51°14.447 2°54.881 21.05583 4.691737 32.697971 -0.781249
2004-08-23 06:44:30 51°14.462 2°54.547 20.999599 4.691631 32.698187 -0.781249
2004-08-23 06:45:34 51°14.403 2°54.197 21.00295 4.691209 32.698011 -0.781249
2004-08-23 06:46:34 51°14.309 2°53.888 20.978131 4.690998 32.697923 -0.814958
2004-08-23 06:47:38 51°14.2 2°53.565 20.989983 4.690682 32.697531 -0.814958
2004-08-23 06:48:37 51°14.094 2°53.269 20.990143 4.690365 32.697659 -0.781249
2004-08-23 06:49:37 51°13.986 2°52.969 21.000596 4.689838 32.69614 -0.814958
2004-08-23 06:50:46 51°13.864 2°52.622 21.012564 4.689627 32.696052 -0.814958
2004-08-23 06:51:45 51°13.758 2°52.328 21.028199 4.689311 32.6967 -0.781249
2004-08-23 06:52:45 51°13.649 2°52.031 21.023333 4.688994 32.695788 -0.781249
2004-08-23 06:53:53 51°13.526 2°51.695 21.028996 4.688678 32.695917 -0.781249
2004-08-23 06:54:53 51°13.417 2°51.398 21.051963 4.688361 32.696045 -0.814958
2004-08-23 06:56:06 51°13.286 2°51.036 21.067749 4.687939 32.69587 -0.781249
2004-08-23 06:57:17 51°13.159 2°50.684 21.053917 4.687728 32.696302 -0.781249
2004-08-23 06:58:22 51°13.042 2°50.363 21.089826 4.687095 32.694479 -0.74754
2004-08-23 06:59:22 51°12.933 2°50.065 21.078828 4.686884 32.694911 -0.781249
2004-08-23 07:00:25 51°12.819 2°49.752 21.098632 4.686568 32.69504 -0.74754
2004-08-23 07:01:25 51°12.711 2°49.455 21.119784 4.686252 32.694648 -0.781249
2004-08-23 07:02:25 51°12.602 2°49.157 21.121377 4.686041 32.695081 -0.781249
2004-08-23 07:03:25 51°12.493 2°48.858 21.112734 4.685724 32.69521 -0.781249
2004-08-23 07:04:30 51°12.377 2°48.533 21.144593 4.685513 32.696684 -0.814958
2004-08-23 07:05:30 51°12.268 2°48.234 21.144394 4.684986 32.694644 -0.781249
2004-08-23 07:06:32 51°12.155 2°47.925 21.166448 4.684775 32.695077 -0.814958
2004-08-23 07:07:31 51°12.046 2°47.631 21.167323 4.684458 32.694685 -0.781249
2004-08-23 07:08:38 51°11.926 2°47.295 21.170666 4.684142 32.694815 -0.814958
2004-08-23 07:09:37 51°11.818 2°47 21.185192 4.68372 32.693599 -0.781249
2004-08-23 07:10:42 51°11.703 2°46.672 21.2132 4.683509 32.694553 -0.74754
2004-08-23 07:11:42 51°11.596 2°46.368 21.217337 4.683193 32.694682 -0.781249
2004-08-23 07:12:42 51°11.489 2°46.063 21.219166 4.682771 32.692946 -0.781249
2004-08-23 07:13:42 51°11.402 2°45.742 21.231773 4.682665 32.694204 -0.781249
2004-08-23 07:14:41 51°11.34 2°45.41 21.245014 4.682243 32.693509 -0.781249
2004-08-23 07:15:42 51°11.279 2°45.063 21.257696 4.682032 32.694463 -0.781249
2004-08-23 07:16:49 51°11.208 2°44.682 21.265407 4.68161 32.693247 -0.814958
2004-08-23 07:17:51 51°11.145 2°44.328 21.276138 4.681399 32.694202 -0.781249
2004-08-23 07:18:50 51°11.091 2°43.987 21.278482 4.680977 32.693507 -0.781249
2004-08-23 07:19:50 51°11.035 2°43.641 21.289569 4.680766 32.69342 -0.814958
2004-08-23 07:20:58 51°10.972 2°43.249 21.294615 4.680555 32.694375 -0.814958
2004-08-23 07:22:01 51°10.914 2°42.887 21.296284 4.680134 32.692638 -0.781249
2004-08-23 07:23:05 51°10.856 2°42.518 21.337233 4.679817 32.693289 -0.814958
2004-08-23 07:24:10 51°10.797 2°42.142 21.346167 4.679606 32.694766 -0.781249
2004-08-23 07:25:14 51°10.74 2°41.771 21.336637 4.67929 32.694375 -0.814958
2004-08-23 07:26:14 51°10.685 2°41.424 21.347477 4.678762 32.692333 -0.814958
2004-08-23 07:27:14 51°10.632 2°41.076 21.359188 4.678551 32.692768 -0.814958
2004-08-23 07:28:15 51°10.579 2°40.721 21.365022 4.678446 32.694028 -0.781249
2004-08-23 07:29:15 51°10.528 2°40.371 21.414619 4.678129 32.695202 -0.814958
2004-08-23 07:30:19 51°10.47 2°40.001 21.391452 4.677707 32.693464 -0.781249
2004-08-23 07:31:18 51°10.418 2°39.66 21.412795 4.677602 32.695246 -0.74754
2004-08-23 07:32:18 51°10.365 2°39.313 21.448127 4.677286 32.694855 -0.74754
2004-08-23 07:33:18 51°10.313 2°38.965 21.438056 4.676969 32.693943 -0.814958
2004-08-23 07:34:19 51°10.263 2°38.612 21.46545 4.676547 32.693248 -0.814958
2004-08-23 07:35:22 51°10.21 2°38.25 21.457879 4.676336 32.693162 -0.814958
2004-08-23 07:36:22 51°10.16 2°37.903 21.45887 4.67602 32.692249 -0.781249
2004-08-23 07:37:22 51°10.106 2°37.554 21.483323 4.675703 32.691858 -0.781249
2004-08-23 07:38:22 51°10.055 2°37.204 21.4857 4.675703 32.694468 -0.814958
2004-08-23 07:39:23 51°10.009 2°36.843 21.472386 4.675281 32.692729 -0.781249
2004-08-23 07:40:21 51°10.006 2°36.492 21.537431 4.674965 32.692339 -0.814958
2004-08-23 07:41:22 51°10.018 2°36.125 21.554929 4.674648 32.691948 -0.781249
2004-08-23 07:42:21 51°10.042 2°35.773 21.579073 4.674226 32.691253 -0.781249
2004-08-23 07:43:23 51°10.145 2°35.461 21.467749 4.674226 32.691775 -0.814958
2004-08-23 07:44:23 51°10.362 2°35.48 21.572622 4.673805 32.69108 -0.781249
2004-08-23 07:45:23 51°10.568 2°35.643 21.578162 4.67391 32.692951 -0.781249
2004-08-23 07:46:28 51°10.786 2°35.84 21.597352 4.673383 32.69143 -0.74754
2004-08-23 07:47:28 51°10.987 2°36.019 21.610763 4.673277 32.691648 -0.814958
2004-08-23 07:48:45 51°11.246 2°36.243 21.627611 4.67275 32.690649 -0.814958
2004-08-23 07:49:46 51°11.448 2°36.429 21.650148 4.672433 32.689736 -0.781249
2004-08-23 07:50:47 51°11.647 2°36.623 21.638406 4.672433 32.691825 -0.781249
2004-08-23 07:51:47 51°11.841 2°36.818 21.658884 4.672222 32.691739 -0.781249
2004-08-23 07:52:47 51°12.029 2°37.024 21.684414 4.671906 32.691348 -0.781249
2004-08-23 07:53:47 51°12.216 2°37.236 21.690934 4.6718 32.692611 -0.781249
2004-08-23 07:54:45 51°12.398 2°37.438 21.690618 4.671484 32.691176 -0.781249
2004-08-23 07:55:46 51°12.59 2°37.65 21.737027 4.670957 32.689655 -0.781249
2004-08-23 07:56:46 51°12.78 2°37.856 21.713728 4.671168 32.692876 -0.781249
2004-08-23 07:57:45 51°12.966 2°38.058 21.737027 4.670535 32.690005 -0.814958
2004-08-23 07:58:46 51°13.16 2°38.265 21.750253 4.670535 32.691573 -0.781249
2004-08-23 07:59:46 51°13.35 2°38.469 21.768765 4.670324 32.692009 -0.814958
2004-08-23 08:00:46 51°13.54 2°38.672 21.769121 4.670113 32.692446 -0.814958
2004-08-23 08:01:47 51°13.753 2°38.802 21.849587 4.669796 32.693101 -0.781249
2004-08-23 08:02:46 51°13.98 2°38.765 21.873749 4.669374 32.690839 -0.781249
2004-08-23 08:03:47 51°14.178 2°38.578 21.896917 4.66948 32.694802 -0.781249
2004-08-23 08:04:54 51°14.185 2°38.195 21.813467 4.669163 32.692321 -0.781249
2004-08-23 08:05:57 51°14.116 2°37.827 21.854278 4.668952 32.693804 -0.74754
2004-08-23 08:06:57 51°14.012 2°37.501 21.856959 4.668531 32.69311 -0.814958
2004-08-23 08:07:58 51°13.903 2°37.17 21.877887 4.668425 32.693851 -0.781249
2004-08-23 08:08:58 51°13.799 2°36.84 21.843201 4.66832 32.693547 -0.781249
2004-08-23 08:09:58 51°13.694 2°36.512 21.918897 4.667898 32.69233 -0.74754
2004-08-23 08:11:01 51°13.59 2°36.162 21.900581 4.667792 32.693595 -0.781249
2004-08-23 08:12:06 51°13.491 2°35.799 21.925946 4.66737 32.6929 -0.74754
2004-08-23 08:13:09 51°13.394 2°35.447 21.997503 4.666948 32.691683 -0.781249
2004-08-23 08:14:09 51°13.295 2°35.118 21.944256 4.667054 32.693557 -0.814958
2004-08-23 08:15:09 51°13.195 2°34.79 21.962364 4.666843 32.693471 -0.74754
2004-08-23 08:16:06 51°13.104 2°34.474 21.964804 4.666632 32.693386 -0.74754
2004-08-23 08:17:08 51°12.999 2°34.137 21.99593 4.666315 32.693519 -0.814958
2004-08-23 08:18:09 51°12.892 2°33.811 22.028969 4.665893 32.691256 -0.781249
2004-08-23 08:19:13 51°12.78 2°33.467 22.023542 4.666104 32.695004 -0.781249
2004-08-23 08:20:28 51°12.649 2°33.064 22.051065 4.665577 32.692436 -0.781249
2004-08-23 08:21:32 51°12.54 2°32.717 22.055507 4.665472 32.693701 -0.74754
2004-08-23 08:22:33 51°12.434 2°32.385 22.066827 4.665261 32.693616 -0.814958
2004-08-23 08:23:33 51°12.329 2°32.061 22.101915 4.664839 32.691875 -0.781249
2004-08-23 08:24:33 51°12.234 2°31.731 22.10439 4.664839 32.693446 -0.814958
2004-08-23 08:25:34 51°12.133 2°31.393 22.094726 4.664522 32.692533 -0.814958
2004-08-23 08:26:34 51°12.036 2°31.058 22.119512 4.664311 32.692971 -0.781249
2004-08-23 08:27:38 51°11.927 2°30.702 22.109379 4.664206 32.693714 -0.781249
2004-08-23 08:28:44 51°11.817 2°30.332 22.169333 4.663889 32.694371 -0.781249
2004-08-23 08:29:47 51°11.713 2°29.976 22.165015 4.663573 32.692935 -0.814958
2004-08-23 08:30:53 51°11.604 2°29.605 22.175376 4.663467 32.694201 -0.781249
2004-08-23 08:31:53 51°11.506 2°29.264 22.217667 4.663257 32.69464 -0.781249
2004-08-23 08:32:52 51°11.408 2°28.93 22.239196 4.663046 32.694031 -0.781249
2004-08-23 08:33:53 51°11.307 2°28.585 22.205548 4.662835 32.693423 -0.781249
2004-08-23 08:34:59 51°11.204 2°28.206 22.158382 4.662624 32.693861 -0.781249
2004-08-23 08:35:59 51°11.15 2°27.838 22.256876 4.662307 32.693472 -0.781249
2004-08-23 08:36:59 51°11.137 2°27.46 22.277687 4.662096 32.693911 -0.781249
2004-08-23 08:37:57 51°11.129 2°27.093 22.287287 4.661991 32.695179 -0.814958
2004-08-23 08:39:02 51°11.116 2°26.684 22.285093 4.661569 32.693961 -0.781249
2004-08-23 08:40:03 51°11.104 2°26.3 22.300412 4.661674 32.696361 -0.781249
2004-08-23 08:41:02 51°11.094 2°25.927 22.293752 4.661252 32.694096 -0.781249
2004-08-23 08:42:03 51°11.085 2°25.541 22.329082 4.661041 32.694535 -0.781249
2004-08-23 08:43:09 51°11.149 2°25.143 22.253858 4.661147 32.697984 -0.781249
2004-08-23 08:44:09 51°11.343 2°24.994 22.268909 4.66062 32.695938 -0.781249
2004-08-23 08:45:10 51°11.534 2°25.178 22.36686 4.660198 32.6921 -0.781249
2004-08-23 08:46:10 51°11.693 2°25.435 22.369169 4.660092 32.694416 -0.781249
2004-08-23 08:47:10 51°11.85 2°25.692 22.381652 4.659776 32.694027 -0.814958
2004-08-23 08:48:09 51°12.004 2°25.946 22.374491 4.659776 32.694551 -0.781249
2004-08-23 08:49:10 51°12.165 2°26.208 22.385487 4.659459 32.694162 -0.74754
2004-08-23 08:50:10 51°12.336 2°26.441 22.396677 4.659248 32.694078 -0.781249
2004-08-23 08:51:16 51°12.524 2°26.695 22.413419 4.658932 32.693689 -0.781249
2004-08-23 08:52:14 51°12.69 2°26.917 22.420419 4.658826 32.694958 -0.814958
2004-08-23 08:53:15 51°12.863 2°27.153 22.445484 4.658404 32.693215 -0.781249
2004-08-23 08:54:21 51°13.057 2°27.396 22.444506 4.658404 32.695838 -0.781249
2004-08-23 08:55:20 51°13.234 2°27.608 22.471125 4.658088 32.694924 -0.781249
2004-08-23 08:56:20 51°13.415 2°27.824 22.479645 4.658088 32.696498 -0.781249
2004-08-23 08:57:21 51°13.598 2°28.042 22.507891 4.657561 32.694976 -0.814958
2004-08-23 08:58:21 51°13.778 2°28.259 22.502383 4.657455 32.695196 -0.814958
2004-08-23 08:59:21 51°13.957 2°28.476 22.528903 4.65735 32.696466 -0.74754
2004-08-23 09:00:21 51°14.136 2°28.691 22.522889 4.657139 32.696381 -0.781249
2004-08-23 09:01:21 51°14.314 2°28.909 22.562517 4.656611 32.694334 -0.814958
2004-08-23 09:02:21 51°14.495 2°29.12 22.580156 4.656822 32.697567 -0.781249
2004-08-23 09:03:21 51°14.679 2°29.327 22.567981 4.6564 32.695824 -0.781249
2004-08-23 09:04:21 51°14.861 2°29.534 22.578518 4.6564 32.696874 -0.781249
2004-08-23 09:05:21 51°15.044 2°29.74 22.601108 4.656084 32.696486 -0.781249
2004-08-23 09:06:21 51°15.228 2°29.944 22.613356 4.655978 32.696706 -0.781249
2004-08-23 09:07:21 51°15.411 2°30.15 22.640965 4.655662 32.696843 -0.814958
2004-08-23 09:08:25 51°15.608 2°30.366 22.637144 4.655662 32.697368 -0.781249
2004-08-23 09:09:25 51°15.793 2°30.57 22.644864 4.655029 32.695015 -0.814958
2004-08-23 09:10:29 51°15.991 2°30.792 22.683139 4.654818 32.694931 -0.781249
2004-08-23 09:11:29 51°16.177 2°30.998 22.679359 4.654818 32.696507 -0.781249
2004-08-23 09:12:29 51°16.363 2°31.206 22.711889 4.654502 32.694543 -0.781249
2004-08-23 09:13:33 51°16.563 2°31.425 22.689139 4.654607 32.697473 -0.814958
2004-08-23 09:14:36 51°16.759 2°31.643 22.708968 4.654291 32.69656 -0.74754
2004-08-23 09:15:36 51°16.945 2°31.85 22.736891 4.65408 32.696476 -0.781249
2004-08-23 09:16:41 51°17.146 2°32.074 22.737319 4.653869 32.695867 -0.781249
2004-08-23 09:17:45 51°17.344 2°32.295 22.778852 4.653552 32.694953 -0.74754
2004-08-23 09:18:50 51°17.548 2°32.514 22.780681 4.653341 32.694869 -0.781249
2004-08-23 09:19:53 51°17.74 2°32.731 22.793249 4.653552 32.69758 -0.781249
2004-08-23 09:20:52 51°17.922 2°32.93 22.776284 4.653236 32.696141 -0.781249
2004-08-23 09:21:52 51°18.108 2°33.132 22.820322 4.652814 32.694922 -0.781249
2004-08-23 09:22:50 51°18.286 2°33.326 22.805036 4.653025 32.697633 -0.814958
2004-08-23 09:23:51 51°18.474 2°33.53 22.832689 4.65292 32.69838 -0.814958
2004-08-23 09:24:49 51°18.653 2°33.721 22.833739 4.652709 32.69777 -0.781249
2004-08-23 09:25:49 51°18.837 2°33.919 22.836849 4.652709 32.698822 -0.814958
2004-08-23 09:26:51 51°19.028 2°34.121 22.875138 4.652287 32.697078 -0.814958
2004-08-23 09:27:52 51°19.214 2°34.32 22.890681 4.652498 32.700315 -0.781249
2004-08-23 09:28:49 51°19.39 2°34.506 22.934455 4.652392 32.700536 -0.814958
2004-08-23 09:29:49 51°19.574 2°34.701 22.91865 4.652076 32.699097 -0.781249
2004-08-23 09:30:52 51°19.74 2°34.952 22.929679 4.651865 32.698487 -0.814958
2004-08-23 09:31:52 51°19.888 2°35.208 22.940241 4.651759 32.699234 -0.781249
2004-08-23 09:32:49 51°20.03 2°35.449 22.958836 4.651654 32.699981 -0.814958
2004-08-23 09:33:49 51°20.173 2°35.713 22.932902 4.651443 32.698846 -0.781249
2004-08-23 09:34:52 51°20.285 2°36.028 22.965551 4.651232 32.698763 -0.781249
2004-08-23 09:35:58 51°20.384 2°36.371 22.983791 4.651126 32.69951 -0.781249
2004-08-23 09:36:58 51°20.475 2°36.683 23.015486 4.650915 32.698901 -0.781249
2004-08-23 09:37:58 51°20.568 2°36.992 23.01025 4.650915 32.700478 -0.781249
2004-08-23 09:38:57 51°20.654 2°37.299 22.910299 4.65081 32.7007 -0.781249
2004-08-23 09:39:57 51°20.673 2°37.635 23.049415 4.650494 32.699786 -0.814958
2004-08-23 09:41:02 51°20.66 2°38.004 23.063409 4.650494 32.701364 -0.781249
2004-08-23 09:42:01 51°20.644 2°38.338 23.096077 4.650494 32.702942 -0.781249
2004-08-23 09:43:01 51°20.628 2°38.677 23.091427 4.650177 32.700976 -0.814958
2004-08-23 09:44:02 51°20.61 2°39.021 23.095302 4.649966 32.700367 -0.814958
2004-08-23 09:45:02 51°20.593 2°39.36 23.092628 4.650072 32.702776 -0.781249
2004-08-23 09:46:01 51°20.577 2°39.696 23.124392 4.649861 32.702167 -0.781249
2004-08-23 09:47:01 51°20.563 2°40.04 23.121216 4.649544 32.700727 -0.814958
2004-08-23 09:48:01 51°20.534 2°40.38 23.177312 4.649333 32.70117 -0.781249
2004-08-23 09:49:01 51°20.509 2°40.721 23.165857 4.649228 32.700865 -0.814958
2004-08-23 09:50:01 51°20.483 2°41.06 23.155948 4.649228 32.701918 -0.814958
2004-08-23 09:51:01 51°20.459 2°41.397 23.193603 4.649122 32.702139 -0.814958
2004-08-23 09:52:01 51°20.434 2°41.731 23.215575 4.648911 32.702056 -0.781249
2004-08-23 09:53:02 51°20.409 2°42.069 23.200644 4.649017 32.703413 -0.781249
2004-08-23 09:54:01 51°20.385 2°42.395 23.25088 4.648911 32.703635 -0.781249
2004-08-23 09:55:01 51°20.359 2°42.73 23.249643 4.648595 32.702195 -0.781249
2004-08-23 09:56:03 51°20.332 2°43.08 23.258302 4.648595 32.703248 -0.814958
2004-08-23 09:57:03 51°20.306 2°43.421 23.266033 4.6487 32.705131 -0.814958
2004-08-23 09:58:03 51°20.281 2°43.761 23.272912 4.64849 32.704522 -0.781249
2004-08-23 09:59:02 51°20.256 2°44.095 23.28752 4.648279 32.703913 -0.814958
2004-08-23 10:00:09 51°20.226 2°44.472 23.321978 4.648173 32.703608 -0.781249
2004-08-23 10:01:09 51°20.196 2°44.806 23.325222 4.648173 32.704661 -0.781249
2004-08-23 10:02:09 51°20.165 2°45.141 23.366649 4.647962 32.704579 -0.781249
2004-08-23 10:03:16 51°20.135 2°45.517 23.327694 4.647962 32.705105 -0.781249
2004-08-23 10:04:16 51°20.108 2°45.851 23.377147 4.647857 32.705854 -0.814958
2004-08-23 10:05:15 51°20.081 2°46.176 23.349819 4.647857 32.705854 -0.781249
2004-08-23 10:06:13 51°20.019 2°46.484 23.389032 4.64754 32.704413 -0.781249
2004-08-23 10:07:16 51°19.935 2°46.815 23.384595 4.647435 32.704635 -0.814958
2004-08-23 10:08:16 51°19.857 2°47.133 23.432235 4.647435 32.705688 -0.814958
2004-08-23 10:09:21 51°19.772 2°47.479 23.407011 4.647329 32.70591 -0.814958
2004-08-23 10:10:20 51°19.694 2°47.791 23.433469 4.647329 32.706437 -0.781249
2004-08-23 10:11:20 51°19.614 2°48.105 23.439677 4.647435 32.707795 -0.781249
2004-08-23 10:12:21 51°19.531 2°48.424 23.463117 4.647118 32.706355 -0.781249
2004-08-23 10:13:22 51°19.452 2°48.746 23.453595 4.647013 32.706577 -0.781249
2004-08-23 10:14:22 51°19.374 2°49.062 23.455214 4.646907 32.706799 -0.814958
2004-08-23 10:15:21 51°19.299 2°49.372 23.502114 4.647013 32.708684 -0.814958
2004-08-23 10:16:22 51°19.219 2°49.691 23.56215 4.646802 32.707021 -0.781249
2004-08-23 10:17:21 51°19.138 2°49.992 23.427607 4.646802 32.707021 -0.781249
2004-08-23 10:18:21 51°19.023 2°50.279 23.542631 4.646696 32.708297 -0.814958
2004-08-23 10:19:21 51°18.908 2°50.57 23.522568 4.646696 32.708824 -0.781249
2004-08-23 10:20:25 51°18.785 2°50.88 23.551948 4.646696 32.708824 -0.781249
2004-08-23 10:21:29 51°18.644 2°51.169 23.569579 4.646485 32.708741 -0.781249
2004-08-23 10:22:30 51°18.462 2°51.379 23.590744 4.646485 32.708741 -0.781249
2004-08-23 10:23:29 51°18.273 2°51.556 23.616635 4.64638 32.70949 -0.781249
2004-08-23 10:24:30 51°18.076 2°51.733 23.618251 4.64638 32.70949 -0.814958
2004-08-23 10:25:34 51°17.871 2°51.923 23.60144 4.64638 32.710544 -0.74754
2004-08-23 10:26:41 51°17.655 2°52.126 23.603903 4.646275 32.71024 -0.781249
2004-08-23 10:27:37 51°17.476 2°52.301 23.680995 4.646275 32.711294 -0.781249
2004-08-23 10:28:40 51°17.271 2°52.491 23.655127 4.646169 32.710989 -0.781249
2004-08-23 10:29:43 51°17.047 2°52.601 23.663239 4.646064 32.711212 -0.781249
2004-08-23 10:30:43 51°16.821 2°52.665 23.667351 4.646064 32.711739 -0.781249
2004-08-23 10:31:44 51°16.593 2°52.749 23.684416 4.645958 32.710907 -0.781249
2004-08-23 10:32:44 51°16.367 2°52.831 23.749022 4.645958 32.711961 -0.74754
2004-08-23 10:33:44 51°16.15 2°52.943 23.685645 4.645853 32.710602 -0.781249
2004-08-23 10:34:43 51°15.937 2°53.053 23.69821 4.645853 32.712184 -0.781249
2004-08-23 10:35:49 51°15.704 2°53.194 23.800337 4.645853 32.713238 -0.814958
2004-08-23 10:36:49 51°15.502 2°53.351 23.778464 4.645853 32.713238 -0.74754
2004-08-23 10:37:54 51°15.301 2°53.563 23.70405 4.645747 32.71346 -0.814958
2004-08-23 10:39:00 51°15.096 2°53.772 23.718839 4.645747 32.712933 -0.814958
2004-08-23 10:40:09 51°14.89 2°54.014 23.703358 4.645536 32.712324 -0.814958
2004-08-23 10:41:09 51°14.745 2°54.234 23.678382 4.645536 32.713378 -0.781249
2004-08-23 10:42:10 51°14.62 2°54.413 23.817331 4.645536 32.713378 -0.814958
2004-08-23 10:43:11 51°14.5 2°54.656 23.852189 4.645536 32.714433 -0.74754
2004-08-23 10:44:10 51°14.415 2°54.92 23.76718 4.645536 32.713906 -0.814958